Time;durP1;ratioP1;P1;durP2;ratioP2;P2;SDS_P1;SDS_P2;PMS_P1;PMS_P2;Temp;Humidity;BMP_temperature;BMP_pressure;BME280_temperature;BME280_humidity;BME280_pressure;Samples;Min_cycle;Max_cycle;Signal;HPM_P1;HPM_P2
2021/12/14 00:01:31;;;;;;;17.63;9.55;;;;;;;3.25;91.62;100521.47;5070757;28;20487;-20
2021/12/14 00:04:11;;;;;;;15.52;9.32;;;;;;;3.36;91.10;100518.56;5070988;28;20025;-20
2021/12/14 00:06:37;;;;;;;14.45;8.90;;;;;;;3.09;92.15;100523.06;5070858;28;20029;-20
2021/12/14 00:09:04;;;;;;;16.15;8.80;;;;;;;3.13;91.96;100521.78;5070943;28;20043;-20
2021/12/14 00:16:45;;;;;;;16.85;9.48;;;;;;;3.23;91.20;100513.75;5070745;28;20036;-19
2021/12/14 00:19:11;;;;;;;14.48;8.23;;;;;;;3.04;90.72;100498.19;5052762;28;20032;-20
2021/12/14 00:21:36;;;;;;;15.05;8.73;;;;;;;3.19;91.56;100523.78;5070593;28;20089;-19
2021/12/14 00:24:07;;;;;;;13.73;8.30;;;;;;;3.16;90.47;100510.91;5070956;28;20373;-20
2021/12/14 00:26:40;;;;;;;15.32;8.38;;;;;;;2.92;92.77;100531.88;5070509;28;20032;-20
2021/12/14 00:29:05;;;;;;;11.93;7.05;;;;;;;2.75;92.63;100518.63;5071049;28;20028;-20
2021/12/14 00:31:32;;;;;;;12.55;7.47;;;;;;;2.70;93.18;100512.19;5070719;28;20036;-20
2021/12/14 00:34:01;;;;;;;12.57;7.28;;;;;;;2.78;93.11;100534.13;5070635;28;20041;-19
2021/12/14 00:36:27;;;;;;;12.80;8.07;;;;;;;2.82;93.04;100532.03;5070445;28;20056;-21
2021/12/14 00:38:56;;;;;;;12.27;7.13;;;;;;;2.69;93.21;100527.16;5052556;28;20738;-19
2021/12/14 00:41:27;;;;;;;13.90;7.80;;;;;;;2.91;92.82;100540.78;5053238;28;20083;-21
2021/12/14 00:43:52;;;;;;;12.60;7.53;;;;;;;3.08;91.81;100542.50;5070612;28;20040;-20
2021/12/14 00:46:18;;;;;;;12.45;7.75;;;;;;;3.09;91.58;100538.88;5070439;28;20777;-19
2021/12/14 00:48:43;;;;;;;13.63;7.65;;;;;;;2.94;92.42;100536.03;5068767;28;20033;-20
2021/12/14 00:51:09;;;;;;;12.32;7.03;;;;;;;2.99;91.96;100544.28;5070326;28;20563;-20
2021/12/14 00:53:35;;;;;;;15.80;8.98;;;;;;;3.24;91.69;100546.19;5070351;28;20126;-19
2021/12/14 00:56:03;;;;;;;12.65;7.13;;;;;;;2.96;91.39;100544.59;5069920;28;20098;-20
2021/12/14 00:58:29;;;;;;;13.27;6.75;;;;;;;2.71;91.84;100530.47;5069945;28;20106;-20
2021/12/14 01:01:09;;;;;;;14.35;8.23;;;;;;;2.91;92.11;100530.25;5070037;28;20048;-20
2021/12/14 01:03:35;;;;;;;12.95;8.00;;;;;;;2.88;92.40;100546.34;5069868;28;20047;-23
2021/12/14 01:06:01;;;;;;;14.10;7.88;;;;;;;3.11;91.55;100554.56;5070293;28;20036;-20
2021/12/14 01:08:29;;;;;;;12.43;6.97;;;;;;;2.87;90.87;100524.47;5069387;28;20040;-19
2021/12/14 01:11:19;;;;;;;15.38;8.50;;;;;;;3.14;91.20;100527.88;5069820;28;20039;-20
2021/12/14 01:13:55;;;;;;;15.73;8.30;;;;;;;3.39;91.03;100552.50;5069500;28;20032;-20
2021/12/14 01:17:10;;;;;;;11.05;6.63;;;;;;;2.92;90.44;100532.72;5053208;28;20035;-20
2021/12/14 01:19:15;;;;;;;13.00;7.35;;;;;;;2.84;92.24;100542.38;5062072;28;20036;-20
2021/12/14 01:22:37;;;;;;;13.60;7.65;;;;;;;2.73;91.93;100533.75;5069450;28;20036;-20
2021/12/14 01:25:01;;;;;;;12.23;7.25;;;;;;;2.82;91.76;100532.03;5065089;28;20502;-20
2021/12/14 01:27:35;;;;;;;13.15;7.68;;;;;;;2.88;92.14;100549.84;5069789;28;20064;-20
2021/12/14 01:30:13;;;;;;;12.95;7.07;;;;;;;2.73;92.21;100533.75;5069370;28;20033;-21
2021/12/14 01:32:42;;;;;;;12.13;6.55;;;;;;;2.79;91.56;100535.78;5069044;28;20093;-20
2021/12/14 01:35:12;;;;;;;12.82;6.78;;;;;;;2.66;91.91;100543.28;5069148;28;20052;-20
2021/12/14 01:37:43;;;;;;;14.32;6.88;;;;;;;2.76;91.67;100533.47;5069113;28;20056;-20
2021/12/14 01:40:18;;;;;;;14.10;7.32;;;;;;;2.74;91.62;100543.34;5052574;28;20106;-21
2021/12/14 01:42:44;;;;;;;13.35;7.28;;;;;;;2.76;92.09;100544.00;5068965;28;20024;-20
2021/12/14 01:45:16;;;;;;;12.00;7.38;;;;;;;2.85;91.27;100547.50;5069727;28;20036;-23
2021/12/14 01:47:47;;;;;;;12.32;7.13;;;;;;;2.68;92.11;100554.47;5069126;28;20028;-20
2021/12/14 01:50:21;;;;;;;11.77;7.28;;;;;;;2.71;91.77;100546.25;5069123;28;20060;-20
2021/12/14 01:52:47;;;;;;;12.77;7.55;;;;;;;2.88;91.44;100546.34;5069116;28;20060;-20
2021/12/14 01:55:19;;;;;;;11.85;7.05;;;;;;;3.05;90.52;100547.28;5068991;28;20036;-21
2021/12/14 01:57:45;;;;;;;12.98;7.70;;;;;;;2.99;89.87;100525.00;5068925;28;20063;-20
2021/12/14 02:00:15;;;;;;;12.15;6.60;;;;;;;3.06;89.71;100544.47;5068545;28;20072;-21
2021/12/14 02:02:42;;;;;;;11.40;7.10;;;;;;;3.01;90.12;100541.50;5068677;28;20043;-21
2021/12/14 02:05:26;;;;;;;12.35;6.85;;;;;;;2.92;89.56;100527.47;5068986;28;20119;-20
2021/12/14 02:07:51;;;;;;;12.38;7.10;;;;;;;3.07;90.04;100548.75;5068562;28;20108;-20
2021/12/14 02:10:24;;;;;;;11.63;6.43;;;;;;;2.92;90.39;100537.16;5068917;28;20032;-20
2021/12/14 02:12:50;;;;;;;13.70;8.05;;;;;;;2.93;90.27;100544.91;5051314;28;20039;-19
2021/12/14 02:15:31;;;;;;;13.60;7.63;;;;;;;2.72;90.82;100536.56;5068510;28;20827;-20
2021/12/14 02:17:58;;;;;;;11.52;7.55;;;;;;;2.90;90.31;100545.22;5068411;28;20028;-20
2021/12/14 02:20:28;;;;;;;14.48;8.02;;;;;;;3.15;90.51;100547.97;5068436;28;20043;-20
2021/12/14 02:22:53;;;;;;;12.40;7.22;;;;;;;3.04;89.92;100545.59;5068850;28;20035;-19
2021/12/14 02:25:19;;;;;;;12.48;7.35;;;;;;;3.03;90.19;100544.78;5068296;28;20033;-20
2021/12/14 02:27:46;;;;;;;12.77;6.93;;;;;;;3.17;89.35;100538.09;5068399;28;20028;-20
2021/12/14 02:30:15;;;;;;;14.52;8.35;;;;;;;3.12;88.85;100545.66;5068419;28;20059;-20
2021/12/14 02:32:40;;;;;;;13.70;7.55;;;;;;;2.97;89.52;100553.31;5068050;28;20021;-20
2021/12/14 02:35:09;;;;;;;13.38;7.55;;;;;;;2.95;90.13;100552.66;5067775;28;20424;-20
2021/12/14 02:37:40;;;;;;;14.38;7.78;;;;;;;3.10;89.74;100545.78;5068366;28;20103;-20
2021/12/14 02:40:20;;;;;;;13.77;7.60;;;;;;;3.01;88.96;100562.56;5068278;28;20043;-19
2021/12/14 02:42:48;;;;;;;12.35;7.85;;;;;;;3.13;89.07;100555.22;5050674;28;20048;-20
2021/12/14 02:45:14;;;;;;;16.63;7.70;;;;;;;2.99;89.00;100546.91;5050166;28;20090;-20
2021/12/14 02:47:39;;;;;;;12.93;6.95;;;;;;;3.01;89.05;100555.47;5050164;28;20412;-20
2021/12/14 02:50:05;;;;;;;12.30;7.25;;;;;;;2.98;88.97;100552.31;5067996;28;20044;-20
2021/12/14 02:52:35;;;;;;;11.35;6.50;;;;;;;3.04;88.34;100562.25;5049866;28;20032;-20
2021/12/14 02:55:07;;;;;;;11.15;6.13;;;;;;;2.89;88.83;100558.56;5068009;28;20032;-19
2021/12/14 02:57:34;;;;;;;11.80;6.22;;;;;;;2.74;89.29;100553.88;5049745;28;20465;-20
2021/12/14 03:00:00;;;;;;;11.93;6.60;;;;;;;2.66;89.84;100559.09;5067914;28;20035;-20
2021/12/14 03:02:30;;;;;;;12.27;6.63;;;;;;;2.67;89.65;100544.91;5067562;28;20037;-20
2021/12/14 03:04:58;;;;;;;12.50;6.97;;;;;;;2.58;89.81;100551.94;5068168;28;20047;-20
2021/12/14 03:07:26;;;;;;;10.38;6.25;;;;;;;2.54;91.06;100555.06;5067984;28;20032;-20
2021/12/14 03:10:01;;;;;;;11.13;6.35;;;;;;;2.28;90.83;100544.50;5068101;28;20141;-20
2021/12/14 03:12:47;;;;;;;11.02;6.50;;;;;;;2.38;90.94;100556.56;5066734;28;20491;-20
2021/12/14 03:15:22;;;;;;;11.05;5.63;;;;;;;2.46;90.36;100565.53;5068011;28;20059;-20
2021/12/14 03:17:50;;;;;;;9.90;5.82;;;;;;;2.20;91.07;100559.22;5050081;28;20086;-20
2021/12/14 03:20:36;;;;;;;11.13;5.90;;;;;;;2.42;90.70;100568.47;5067588;28;20440;-20
2021/12/14 03:23:10;;;;;;;10.65;6.28;;;;;;;2.49;89.92;100563.38;5067457;28;20036;-19
2021/12/14 03:25:38;;;;;;;10.27;6.10;;;;;;;2.32;89.88;100557.19;5067579;28;20037;-20
2021/12/14 03:28:05;;;;;;;9.45;5.65;;;;;;;2.34;89.86;100555.22;5067773;28;20043;-20
2021/12/14 03:30:35;;;;;;;8.90;5.30;;;;;;;2.34;90.28;100560.50;5067724;28;20068;-20
2021/12/14 03:33:05;;;;;;;9.98;5.78;;;;;;;2.21;90.15;100575.88;5033608;28;20044;-21
2021/12/14 03:35:44;;;;;;;8.68;5.35;;;;;;;2.28;89.25;100579.53;5049521;28;20206;-20
2021/12/14 03:38:21;;;;;;;10.43;5.15;;;;;;;2.12;89.21;100582.03;5067855;28;20040;-19
2021/12/14 03:40:57;;;;;;;9.20;5.03;;;;;;;1.93;89.58;100560.16;5067858;28;20029;-20
2021/12/14 03:43:22;;;;;;;9.60;5.03;;;;;;;1.91;90.02;100575.25;5049653;28;20034;-20
2021/12/14 03:45:48;;;;;;;8.27;4.63;;;;;;;1.92;89.24;100573.44;5067228;28;20029;-20
2021/12/14 03:48:13;;;;;;;9.63;5.85;;;;;;;2.13;88.88;100581.06;5067468;28;20025;-20
2021/12/14 03:50:42;;;;;;;9.18;5.45;;;;;;;1.87;89.07;100573.91;5067335;28;20454;-20
2021/12/14 03:53:08;;;;;;;8.68;5.28;;;;;;;1.87;89.79;100586.25;5067383;28;20036;-19
2021/12/14 03:55:36;;;;;;;8.80;4.60;;;;;;;1.74;89.15;100570.84;5067215;28;20054;-20
2021/12/14 03:58:07;;;;;;;8.80;4.97;;;;;;;1.67;89.61;100577.66;5049609;28;20035;-20
2021/12/14 04:00:35;;;;;;;9.10;5.03;;;;;;;1.85;88.80;100586.38;5067122;28;20036;-20
2021/12/14 04:03:04;;;;;;;8.63;4.80;;;;;;;1.79;88.92;100581.72;5067389;28;20036;-20
2021/12/14 04:05:30;;;;;;;10.32;5.53;;;;;;;1.84;88.03;100574.22;5067140;28;20492;-20
2021/12/14 04:07:55;;;;;;;9.15;5.32;;;;;;;1.52;88.45;100574.69;5067297;28;20116;-20
2021/12/14 04:10:29;;;;;;;9.70;5.22;;;;;;;1.50;88.74;100572.22;5067269;28;20106;-20
2021/12/14 04:12:55;;;;;;;9.07;5.28;;;;;;;1.43;89.87;100586.94;5066984;28;20029;-20
2021/12/14 04:15:21;;;;;;;9.73;5.18;;;;;;;1.55;88.93;100588.38;5067057;28;20025;-20
2021/12/14 04:17:46;;;;;;;9.63;5.55;;;;;;;1.45;88.87;100586.75;5066991;28;20032;-20
2021/12/14 04:20:23;;;;;;;11.77;5.75;;;;;;;1.35;89.12;100578.94;5048897;28;20052;-20
2021/12/14 04:22:49;;;;;;;10.48;5.45;;;;;;;1.53;89.18;100592.97;5068062;28;20415;-22
2021/12/14 04:25:19;;;;;;;10.50;5.47;;;;;;;1.22;89.39;100562.69;5070533;28;20035;-20
2021/12/14 04:27:45;;;;;;;9.95;5.90;;;;;;;1.52;88.72;100586.03;5070588;28;20051;-20
2021/12/14 04:30:13;;;;;;;10.10;5.55;;;;;;;1.31;89.24;100585.44;5070527;28;20481;-20
2021/12/14 04:32:39;;;;;;;10.98;6.30;;;;;;;1.37;89.49;100595.41;5070030;28;20040;-21
2021/12/14 04:35:05;;;;;;;10.27;5.88;;;;;;;1.10;89.81;100581.25;5069996;28;20036;-20
2021/12/14 04:37:36;;;;;;;10.15;6.13;;;;;;;1.34;90.12;100603.56;5052606;28;20488;-19
2021/12/14 04:40:20;;;;;;;11.38;6.00;;;;;;;1.18;90.25;100605.00;5070314;28;20036;-20
2021/12/14 04:54:03;;;;;;;12.05;6.45;;;;;;;1.30;89.91;100600.38;5070114;28;20120;-19
2021/12/14 04:56:33;;;;;;;9.85;6.03;;;;;;;1.41;89.07;100609.91;5069368;28;20040;-20
2021/12/14 04:59:10;;;;;;;10.70;5.68;;;;;;;1.14;89.79;100595.75;5069869;28;20221;-20
2021/12/14 05:01:37;;;;;;;11.05;6.35;;;;;;;1.24;89.88;100615.91;5070354;28;20032;-19
2021/12/14 05:04:05;;;;;;;10.13;5.70;;;;;;;1.28;89.77;100619.91;5070365;28;20033;-21
2021/12/14 05:06:44;;;;;;;11.63;6.32;;;;;;;1.46;89.26;100606.84;5069613;28;20592;-20
2021/12/14 05:09:22;;;;;;;12.00;6.45;;;;;;;1.52;88.36;100614.94;5069962;28;20130;-20
2021/12/14 05:11:51;;;;;;;;;;;;;;;1.34;89.19;100612.25;5070233;28;20032;-20
2021/12/14 05:14:17;;;;;;;9.90;5.78;;;;;;;1.30;89.56;100607.44;5069710;28;19965;-20
2021/12/14 05:16:42;;;;;;;11.75;6.47;;;;;;;1.63;88.53;100610.47;5051502;28;20029;-20
2021/12/14 05:19:09;;;;;;;9.90;5.38;;;;;;;1.51;88.06;100584.41;5069469;28;20032;-20
2021/12/14 05:21:41;;;;;;;9.15;5.82;;;;;;;1.69;88.40;100623.03;5068174;28;20028;-20
2021/12/14 05:24:08;;;;;;;9.82;5.85;;;;;;;1.59;88.03;100612.56;5069507;28;20415;-20
2021/12/14 05:26:34;;;;;;;9.68;6.20;;;;;;;1.94;87.77;100619.69;5069276;28;20028;-20
2021/12/14 05:28:59;;;;;;;10.68;5.55;;;;;;;1.73;87.23;100613.88;5069476;28;20830;-20
2021/12/14 05:31:25;;;;;;;7.60;4.60;;;;;;;1.79;87.03;100611.47;5069323;28;20093;-21
2021/12/14 05:33:51;;;;;;;8.60;4.93;;;;;;;1.84;86.93;100618.94;5069025;28;20066;-20
2021/12/14 05:36:17;;;;;;;10.25;5.07;;;;;;;1.75;88.05;100622.44;5069074;28;20063;-20
2021/12/14 05:38:54;;;;;;;10.23;5.15;;;;;;;1.71;87.77;100626.34;5069061;28;20020;-20
2021/12/14 05:44:23;;;;;;;8.70;4.82;;;;;;;1.71;88.67;100632.41;5069311;28;20082;-20
2021/12/14 05:46:51;;;;;;;9.48;4.57;;;;;;;1.50;88.22;100630.03;5069156;28;20028;-20
2021/12/14 05:49:21;;;;;;;7.50;4.38;;;;;;;1.51;88.61;100639.59;5069234;28;20028;-20
2021/12/14 05:51:47;;;;;;;8.02;4.53;;;;;;;1.09;89.75;100616.38;5068982;28;20064;-20
2021/12/14 05:54:27;;;;;;;5.68;3.53;;;;;;;1.02;90.99;100644.19;5068965;28;20113;-21
2021/12/14 05:56:53;;;;;;;9.18;5.28;;;;;;;1.01;91.59;100629.41;5069228;28;20111;-20
2021/12/14 05:59:20;;;;;;;9.95;4.95;;;;;;;1.08;91.09;100651.50;5068633;28;20079;-20
2021/12/14 06:01:45;;;;;;;9.95;5.32;;;;;;;0.89;92.08;100630.53;5068737;28;20415;-20
2021/12/14 06:04:11;;;;;;;8.95;4.85;;;;;;;0.89;92.25;100625.28;5050783;28;20040;-22
2021/12/14 06:06:52;;;;;;;9.10;4.97;;;;;;;0.82;92.36;100629.44;5068537;28;20094;-20
2021/12/14 06:09:29;;;;;;;7.85;4.80;;;;;;;0.84;92.64;100622.25;5068727;28;20036;-20
2021/12/14 06:12:19;;;;;;;7.13;4.32;;;;;;;0.88;92.88;100640.22;5068396;28;20060;-20
2021/12/14 06:14:53;;;;;;;9.55;4.93;;;;;;;0.83;93.11;100634.56;5052562;28;20032;-20
2021/12/14 06:17:47;;;;;;;8.25;4.75;;;;;;;0.64;93.84;100643.31;5068636;28;20040;-20
2021/12/14 06:20:18;;;;;;;7.68;4.50;;;;;;;0.85;93.38;100634.41;5033729;28;20063;-20
2021/12/14 06:22:44;;;;;;;9.95;4.88;;;;;;;0.84;92.94;100624.88;5068109;28;20043;-20
2021/12/14 06:25:12;;;;;;;10.43;4.30;;;;;;;0.97;91.93;100630.66;5068353;28;20029;-21
2021/12/14 06:27:37;;;;;;;8.90;4.47;;;;;;;1.07;92.60;100630.63;5068332;28;20109;-20
2021/12/14 06:30:09;;;;;;;7.57;4.53;;;;;;;0.92;92.87;100636.34;5068355;28;20408;-20
2021/12/14 06:32:39;;;;;;;7.05;4.32;;;;;;;0.99;93.91;100641.84;5067953;28;20055;-20
2021/12/14 06:35:11;;;;;;;7.63;3.92;;;;;;;0.85;93.23;100640.50;5050366;28;20071;-20
2021/12/14 06:38:40;;;;;;;6.60;3.97;;;;;;;1.06;93.51;100653.44;5068047;28;20035;-21
2021/12/14 06:41:13;;;;;;;9.90;5.28;;;;;;;0.79;93.25;100633.19;5060323;28;20047;-20
2021/12/14 06:43:41;;;;;;;11.27;5.93;;;;;;;0.85;94.71;100658.06;5068249;28;20040;-20
2021/12/14 06:46:16;;;;;;;10.18;5.50;;;;;;;0.79;94.54;100641.88;5068300;28;20733;-20
2021/12/14 06:49:00;;;;;;;7.88;4.22;;;;;;;0.87;94.89;100658.75;5068111;28;20063;-21
2021/12/14 06:51:31;;;;;;;9.50;4.95;;;;;;;1.02;93.99;100654.69;5068027;28;20036;-20
2021/12/14 06:54:04;;;;;;;9.25;5.47;;;;;;;1.01;93.81;100639.91;5067941;28;20037;-20
2021/12/14 06:56:31;;;;;;;14.57;7.93;;;;;;;1.04;93.64;100649.28;5067750;28;20443;-19
2021/12/14 06:59:00;;;;;;;13.57;7.50;;;;;;;1.08;93.29;100646.22;5067953;28;20048;-20
2021/12/14 07:01:34;;;;;;;24.58;10.55;;;;;;;0.95;94.36;100650.97;5067874;28;20075;-20
2021/12/14 07:04:09;;;;;;;9.93;5.28;;;;;;;0.89;95.29;100662.06;5051115;28;20025;-20
2021/12/14 07:06:34;;;;;;;44.17;17.58;;;;;;;1.08;94.57;100664.63;5049500;28;20036;-21
2021/12/14 07:09:14;;;;;;;11.35;5.10;;;;;;;0.87;94.93;100653.50;5067972;28;20028;-20
2021/12/14 07:11:42;;;;;;;30.08;7.90;;;;;;;0.98;94.04;100658.56;5068116;28;20032;-20
2021/12/14 07:14:22;;;;;;;32.92;9.23;;;;;;;1.05;94.10;100661.47;5067953;28;20039;-22
2021/12/14 07:16:47;;;;;;;20.75;6.85;;;;;;;1.08;93.62;100643.59;5067959;28;20423;-21
2021/12/14 07:19:13;;;;;;;37.35;12.48;;;;;;;1.22;93.62;100668.59;5067571;28;20506;-20
2021/12/14 07:21:48;;;;;;;33.50;10.80;;;;;;;1.02;93.75;100673.06;5067845;28;20404;-20
2021/12/14 07:24:22;;;;;;;30.65;9.63;;;;;;;0.97;94.46;100675.31;5067828;28;20094;-21
2021/12/14 07:27:11;;;;;;;28.10;9.07;;;;;;;0.88;94.80;100666.47;5067528;28;20098;-20
2021/12/14 07:29:36;;;;;;;;;;;;;;;0.92;95.59;100677.50;5068260;28;20028;-20
2021/12/14 07:32:02;;;;;;;10.75;4.60;;;;;;;0.87;95.41;100666.63;5067827;28;20311;-20
2021/12/14 07:34:27;;;;;;;10.90;5.38;;;;;;;0.88;95.43;100678.75;5049554;28;20033;-21
2021/12/14 07:36:53;;;;;;;16.30;7.75;;;;;;;0.84;95.77;100674.75;5067616;28;20060;-21
2021/12/14 07:39:19;;;;;;;11.30;5.97;;;;;;;0.78;96.26;100669.13;5067827;28;20036;-20
2021/12/14 07:41:50;;;;;;;14.05;6.32;;;;;;;1.07;95.73;100686.63;5067579;28;20037;-20
2021/12/14 07:44:19;;;;;;;21.63;7.82;;;;;;;1.13;95.07;100690.50;5067431;28;20085;-21
2021/12/14 07:46:48;;;;;;;11.30;4.93;;;;;;;1.05;94.68;100696.44;5067359;28;20067;-21
2021/12/14 07:49:36;;;;;;;24.48;10.43;;;;;;;1.16;94.52;100690.19;5067247;28;20032;-20
2021/12/14 07:52:07;;;;;;;12.32;5.53;;;;;;;1.07;94.67;100691.06;5067534;28;20036;-20
2021/12/14 07:54:43;;;;;;;9.48;4.90;;;;;;;1.13;94.91;100701.81;5067040;28;20060;-20
2021/12/14 07:57:20;;;;;;;16.10;8.60;;;;;;;1.12;95.06;100684.38;5067484;28;20039;-21
2021/12/14 07:59:48;;;;;;;23.77;9.50;;;;;;;1.17;94.91;100681.34;5071216;28;20446;-20
2021/12/14 08:02:24;;;;;;;11.82;5.38;;;;;;;1.06;95.43;100700.72;5071248;28;20032;-21
2021/12/14 08:04:52;;;;;;;9.23;4.53;;;;;;;1.16;95.50;100705.94;5070996;28;20032;-20
2021/12/14 08:07:26;;;;;;;;;;;;;;;1.23;95.03;100707.06;5071468;28;20511;-20
2021/12/14 08:09:53;;;;;;;11.27;5.18;;;;;;;1.20;95.28;100708.16;5071084;28;19970;-20
2021/12/14 08:12:28;;;;;;;15.25;6.82;;;;;;;1.12;95.91;100709.81;5053484;28;20036;-21
2021/12/14 08:15:20;;;;;;;14.73;7.68;;;;;;;1.20;95.63;100710.78;5071033;28;20033;-20
2021/12/14 08:17:47;;;;;;;15.45;7.15;;;;;;;1.26;95.55;100700.69;5056243;28;20504;-20
2021/12/14 08:20:19;;;;;;;11.23;6.10;;;;;;;1.41;95.24;100709.78;5052829;28;20044;-21
2021/12/14 08:22:45;;;;;;;13.45;7.07;;;;;;;1.17;95.00;100697.94;5070591;28;20058;-20
2021/12/14 08:25:11;;;;;;;13.90;6.90;;;;;;;1.13;95.42;100704.44;5071530;28;20493;-20
2021/12/14 08:27:37;;;;;;;19.15;10.23;;;;;;;1.02;97.06;100703.78;5071049;28;20820;-20
2021/12/14 08:30:06;;;;;;;13.25;7.97;;;;;;;1.19;96.55;100711.75;5070652;28;20036;-20
2021/12/14 08:32:33;;;;;;;16.88;8.65;;;;;;;1.32;96.07;100721.94;5070315;28;20045;-21
2021/12/14 08:34:59;;;;;;;10.23;6.30;;;;;;;1.43;95.52;100718.34;5070649;28;20131;-21
2021/12/14 08:37:44;;;;;;;12.02;6.85;;;;;;;1.64;94.10;100723.38;5070257;28;20049;-20
2021/12/14 08:40:18;;;;;;;11.98;6.68;;;;;;;1.33;95.05;100701.78;5070453;28;20043;-20
2021/12/14 08:43:21;;;;;;;12.20;7.45;;;;;;;1.60;95.14;100717.56;5070195;28;20250;-20
2021/12/14 08:45:48;;;;;;;13.73;7.57;;;;;;;1.48;94.96;100710.84;5070044;28;20043;-20
2021/12/14 08:48:23;;;;;;;11.18;6.50;;;;;;;1.65;94.70;100716.31;5069978;28;20028;-20
2021/12/14 08:50:53;;;;;;;13.43;7.18;;;;;;;1.55;94.48;100701.41;5069869;28;20021;-20
2021/12/14 08:53:21;;;;;;;13.60;7.65;;;;;;;1.52;95.32;100696.44;5070218;28;20041;-20
2021/12/14 08:55:48;;;;;;;15.45;8.00;;;;;;;1.73;94.45;100695.38;5070241;28;20028;-19
2021/12/14 08:58:14;;;;;;;15.20;6.68;;;;;;;1.40;93.96;100652.91;5069906;28;20028;-20
2021/12/14 09:00:44;;;;;;;16.08;8.60;;;;;;;1.77;93.82;100699.38;5070014;28;20056;-20
2021/12/14 09:03:31;;;;;;;13.68;7.57;;;;;;;1.44;95.24;100701.59;5069854;28;20811;-20
2021/12/14 09:05:57;;;;;;;11.38;6.72;;;;;;;1.48;95.41;100707.41;5069934;28;20086;-20
2021/12/14 09:08:23;;;;;;;12.50;7.45;;;;;;;1.48;96.04;100700.31;5069826;28;20082;-20
2021/12/14 09:10:50;;;;;;;11.90;6.78;;;;;;;1.43;95.37;100673.66;5068286;28;20029;-20
2021/12/14 09:13:16;;;;;;;13.00;7.47;;;;;;;1.50;95.35;100671.28;5070053;28;20462;-20
2021/12/14 09:15:44;;;;;;;13.45;7.72;;;;;;;1.59;95.21;100681.75;5052154;28;20029;-20
2021/12/14 09:18:10;;;;;;;13.40;6.88;;;;;;;1.69;94.70;100686.94;5069690;28;20032;-19
2021/12/14 09:20:39;;;;;;;13.90;7.10;;;;;;;1.57;94.91;100683.69;5069456;28;20043;-20
2021/12/14 09:23:12;;;;;;;12.85;6.78;;;;;;;1.58;95.47;100680.09;5069675;28;20102;-19
2021/12/14 09:25:37;;;;;;;10.52;5.60;;;;;;;1.55;95.22;100662.00;5069602;28;20055;-20
2021/12/14 09:28:03;;;;;;;11.35;6.10;;;;;;;1.56;95.39;100666.25;5069663;28;20544;-20
2021/12/14 09:30:31;;;;;;;13.27;7.40;;;;;;;1.51;95.76;100654.50;5069063;28;20411;-20
2021/12/14 09:32:56;;;;;;;12.47;7.93;;;;;;;1.73;95.71;100662.00;5069376;28;20037;-20
2021/12/14 09:35:24;;;;;;;13.57;7.65;;;;;;;1.92;94.61;100669.00;5069263;28;20300;-19
2021/12/14 09:37:50;;;;;;;11.98;6.22;;;;;;;1.64;94.79;100657.66;5069400;28;20119;-19
2021/12/14 09:40:53;;;;;;;10.98;6.78;;;;;;;1.70;94.69;100645.72;5069243;28;20037;-21
2021/12/14 09:43:19;;;;;;;12.65;6.75;;;;;;;1.71;94.76;100642.94;5069363;28;20036;-20
2021/12/14 09:45:46;;;;;;;12.10;7.57;;;;;;;1.86;94.75;100661.69;5069141;28;20029;-20
2021/12/14 09:48:16;;;;;;;13.00;8.33;;;;;;;1.98;94.58;100641.25;5069094;28;20028;-20
2021/12/14 09:50:42;;;;;;;12.75;7.57;;;;;;;2.22;93.30;100641.47;5069065;28;20615;-21
2021/12/14 09:53:09;;;;;;;11.82;6.47;;;;;;;1.99;93.60;100654.25;5069023;28;20145;-19
2021/12/14 09:55:37;;;;;;;10.13;6.75;;;;;;;2.16;93.61;100662.31;5068889;28;20407;-20
2021/12/14 09:58:11;;;;;;;11.20;7.10;;;;;;;2.25;93.31;100661.44;5069148;28;20039;-19
2021/12/14 10:00:54;;;;;;;11.70;6.38;;;;;;;2.33;92.94;100658.88;5069211;28;20028;-20
2021/12/14 10:03:20;;;;;;;12.43;7.00;;;;;;;2.30;92.05;100638.09;5068823;28;20066;-20
2021/12/14 10:05:58;;;;;;;11.65;7.00;;;;;;;2.37;92.58;100665.50;5068860;28;20029;-20
2021/12/14 10:08:26;;;;;;;12.02;7.70;;;;;;;2.22;92.94;100625.69;5068726;28;20036;-21
2021/12/14 10:11:09;;;;;;;11.32;7.38;;;;;;;2.31;93.27;100645.03;5068860;28;20045;-20
2021/12/14 10:13:43;;;;;;;11.82;6.80;;;;;;;2.27;94.44;100646.31;5068738;28;20029;-20
2021/12/14 10:16:09;;;;;;;11.45;6.82;;;;;;;2.26;94.28;100631.50;5068670;28;20036;-21
2021/12/14 10:18:47;;;;;;;11.60;6.75;;;;;;;2.20;93.43;100627.66;5068356;28;20041;-20
2021/12/14 10:21:15;;;;;;;10.60;6.95;;;;;;;2.38;94.03;100646.06;5068273;28;20093;-20
2021/12/14 10:23:41;;;;;;;;;;;;;;;2.44;93.66;100643.84;5068795;28;20064;-20
2021/12/14 10:26:06;;;;;;;16.08;8.57;;;;;;;2.42;93.78;100636.91;5068549;28;19956;-19
2021/12/14 10:28:33;;;;;;;13.75;7.88;;;;;;;2.52;93.64;100641.25;5068202;28;20102;-19
2021/12/14 10:31:05;;;;;;;9.30;5.78;;;;;;;2.49;93.87;100649.44;5068158;28;20489;-20
2021/12/14 10:33:32;;;;;;;21.02;12.48;;;;;;;2.59;94.85;100642.28;5068573;28;20141;-19
2021/12/14 10:36:12;;;;;;;11.20;7.47;;;;;;;2.51;94.15;100644.84;5067946;28;20084;-20
2021/12/14 10:38:51;;;;;;;12.13;6.30;;;;;;;2.35;94.56;100638.50;5067991;28;20034;-19
2021/12/14 10:44:02;;;;;;;12.30;6.72;;;;;;;2.39;95.42;100645.09;5067957;28;20764;-20
2021/12/14 10:46:31;;;;;;;9.45;6.72;;;;;;;2.27;95.81;100627.91;5067865;28;20032;-21
2021/12/14 10:48:56;;;;;;;10.25;6.30;;;;;;;2.28;95.71;100640.06;5067956;28;20492;-20
2021/12/14 10:51:35;;;;;;;10.25;6.47;;;;;;;2.21;95.82;100628.50;5068043;28;20032;-19
2021/12/14 10:54:01;;;;;;;12.23;6.57;;;;;;;2.36;95.80;100632.25;5068214;28;20043;-19
2021/12/14 10:56:29;;;;;;;12.70;7.43;;;;;;;2.32;95.52;100625.63;5067894;28;20024;-19
2021/12/14 10:58:59;;;;;;;10.57;6.40;;;;;;;2.52;94.49;100630.72;5067763;28;20115;-20
2021/12/14 11:01:30;;;;;;;14.32;8.20;;;;;;;2.58;94.58;100630.13;5068237;28;20487;-20
2021/12/14 11:03:58;;;;;;;20.73;11.60;;;;;;;2.67;94.80;100629.19;5067855;28;20082;-20
2021/12/14 11:06:28;;;;;;;13.95;8.60;;;;;;;2.75;94.32;100626.63;5067893;28;20123;-19
2021/12/14 11:12:03;;;;;;;10.23;6.82;;;;;;;2.47;95.55;100627.72;5068027;28;20032;-21
2021/12/14 11:14:31;;;;;;;15.35;8.20;;;;;;;2.57;95.20;100610.03;5050358;28;20081;-21
2021/12/14 11:19:48;;;;;;;16.35;9.95;;;;;;;2.54;95.21;100605.91;5068008;28;20830;-19
2021/12/14 11:22:21;;;;;;;10.48;7.60;;;;;;;2.63;94.73;100616.50;5067654;28;20403;-20
2021/12/14 11:24:49;;;;;;;15.52;8.20;;;;;;;2.37;95.69;100610.22;5067664;28;20106;-20
2021/12/14 11:27:21;;;;;;;9.85;5.30;;;;;;;2.21;94.94;100603.00;5067556;28;20068;-20
2021/12/14 11:30:05;;;;;;;10.60;6.03;;;;;;;2.29;95.69;100615.41;5067765;28;20040;-20
2021/12/14 11:32:30;;;;;;;11.07;6.40;;;;;;;2.24;95.74;100615.03;5067551;28;20070;-19
2021/12/14 11:34:56;;;;;;;7.30;4.55;;;;;;;2.13;95.89;100610.81;5071623;28;20496;-19
2021/12/14 11:37:23;;;;;;;10.63;5.88;;;;;;;2.25;96.33;100614.06;5071364;28;20055;-19
2021/12/14 11:39:51;;;;;;;10.68;6.38;;;;;;;2.42;96.02;100610.56;5071653;28;20028;-20
2021/12/14 11:42:20;;;;;;;10.60;6.57;;;;;;;2.45;95.72;100619.97;5071488;28;20040;-20
2021/12/14 11:44:47;;;;;;;;;;;;;;;2.29;95.63;100614.56;5071678;28;20021;-19
2021/12/14 11:50:07;;;;;;;29.17;14.93;;;;;;;2.42;96.61;100618.47;5071638;28;20094;-20
2021/12/14 11:52:57;;;;;;;28.85;17.08;;;;;;;2.54;95.57;100619.06;5053014;28;20131;-20
2021/12/14 11:55:28;;;;;;;65.53;33.17;;;;;;;2.57;95.26;100617.91;5071185;28;20114;-20
2021/12/14 11:58:28;;;;;;;59.92;28.38;;;;;;;2.30;95.85;100619.69;5070822;28;20086;-20
2021/12/14 12:00:59;;;;;;;20.60;12.23;;;;;;;2.28;96.19;100619.00;5051047;28;20048;-20
2021/12/14 12:03:41;;;;;;;20.17;11.57;;;;;;;2.28;96.47;100603.22;5070987;28;20095;-20
2021/12/14 12:06:45;;;;;;;22.60;12.32;;;;;;;2.44;96.27;100617.50;5054353;28;20474;-19
2021/12/14 12:09:32;;;;;;;14.05;8.80;;;;;;;2.40;96.41;100614.34;5071091;28;20500;-20
2021/12/14 12:12:08;;;;;;;9.60;6.03;;;;;;;2.30;96.17;100614.41;5071113;28;20145;-19
2021/12/14 12:14:54;;;;;;;10.90;7.18;;;;;;;2.23;97.07;100616.03;5070599;28;20058;-20
2021/12/14 12:17:29;;;;;;;13.35;7.82;;;;;;;2.27;96.88;100608.63;5071013;28;20131;-21